createdAt,value
2022-08-07T00:07:10.407Z,4.80
2022-08-07T00:17:22.177Z,5.30
2022-08-07T00:27:28.802Z,4.90
2022-08-07T00:37:55.193Z,5.10
2022-08-07T00:48:18.259Z,5.00
2022-08-07T00:58:24.982Z,4.90
2022-08-07T01:08:31.415Z,5.20
2022-08-07T01:18:39.567Z,5.40
2022-08-07T01:28:48.416Z,5.30
2022-08-07T01:38:54.983Z,5.10
2022-08-07T01:49:02.275Z,4.80
2022-08-07T01:59:31.669Z,5.20
2022-08-07T02:09:52.636Z,5.50
2022-08-07T02:20:05.790Z,5.20
2022-08-07T02:30:15.657Z,5.10
2022-08-07T02:40:30.752Z,5.00
2022-08-07T02:50:43.962Z,5.20
2022-08-07T03:00:56.560Z,4.70
2022-08-07T03:11:03.819Z,4.50
2022-08-07T03:21:11.429Z,4.90
2022-08-07T03:31:23.726Z,4.50
2022-08-07T03:41:42.432Z,5.30
2022-08-07T03:51:55.356Z,4.90
2022-08-07T04:02:07.841Z,4.80
2022-08-07T04:12:25.369Z,4.50
2022-08-07T04:22:34.666Z,5.10
2022-08-07T04:32:44.836Z,4.60
2022-08-07T04:42:54.702Z,4.50
2022-08-07T04:53:16.521Z,4.90
2022-08-07T05:04:07.091Z,4.60
2022-08-07T05:14:56.533Z,4.90
2022-08-07T05:24:59.590Z,4.60
2022-08-07T05:35:07.923Z,4.60
2022-08-07T05:45:28.314Z,4.70
2022-08-07T05:56:03.600Z,4.90
2022-08-07T06:06:09.521Z,4.30
2022-08-07T06:16:16.877Z,4.60
2022-08-07T06:26:27.436Z,5.00
2022-08-07T06:36:34.817Z,4.70
2022-08-07T06:46:41.988Z,4.50
2022-08-07T06:56:51.734Z,4.20
2022-08-07T07:07:00.237Z,4.20
2022-08-07T07:17:17.489Z,3.90
2022-08-07T07:27:35.670Z,4.40
2022-08-07T07:37:59.540Z,3.90
2022-08-07T07:48:11.486Z,4.60
2022-08-07T07:58:36.973Z,3.80
2022-08-07T08:08:48.239Z,3.70
2022-08-07T08:18:56.273Z,3.60
2022-08-07T08:29:04.511Z,3.30
2022-08-07T08:39:11.902Z,3.20
2022-08-07T08:49:33.588Z,3.10
2022-08-07T09:00:00.876Z,3.50
2022-08-07T09:10:32.206Z,3.00
2022-08-07T09:21:34.023Z,3.00
2022-08-07T09:31:49.457Z,3.20
2022-08-07T09:42:09.389Z,3.50
2022-08-07T09:52:41.328Z,4.20
2022-08-07T10:04:05.778Z,3.30
2022-08-07T10:14:11.289Z,3.40
2022-08-07T10:24:30.596Z,3.60
2022-08-07T10:35:14.976Z,3.40
2022-08-07T10:45:45.453Z,3.40
2022-08-07T10:56:20.712Z,3.10
2022-08-07T11:06:52.106Z,3.20
2022-08-07T11:17:07.217Z,3.00
2022-08-07T11:27:20.638Z,3.40
2022-08-07T11:38:12.537Z,3.00
2022-08-07T11:48:29.195Z,2.85
2022-08-07T11:58:56.217Z,3.00
2022-08-07T12:09:16.022Z,2.90
2022-08-07T12:20:03.178Z,2.90
2022-08-07T12:30:06.952Z,3.00
2022-08-07T12:40:44.908Z,3.20
2022-08-07T12:51:01.215Z,3.00
2022-08-07T13:01:32.508Z,2.70
2022-08-07T13:12:03.096Z,2.60
2022-08-07T13:22:34.776Z,2.80
2022-08-07T13:32:58.655Z,2.90
2022-08-07T13:43:11.943Z,3.00
2022-08-07T13:53:25.195Z,3.00
2022-08-07T14:04:05.628Z,2.80
2022-08-07T14:14:11.329Z,3.50
2022-08-07T14:24:36.799Z,3.70
2022-08-07T14:34:48.883Z,3.10
2022-08-07T14:55:34.014Z,3.10
2022-08-07T15:05:55.155Z,3.40
2022-08-07T15:26:43.669Z,3.20
2022-08-07T15:36:57.527Z,3.20
2022-08-07T15:57:48.138Z,2.90
2022-08-07T16:08:31.419Z,3.50
2022-08-07T16:18:51.969Z,3.00
2022-08-07T16:30:09.210Z,2.80
2022-08-07T16:40:28.103Z,2.70
2022-08-07T16:51:13.560Z,3.30
2022-08-07T17:01:34.324Z,2.70
2022-08-07T17:12:05.107Z,2.90
2022-08-07T17:22:17.789Z,3.10
2022-08-07T17:33:01.273Z,2.70
2022-08-07T17:43:17.820Z,2.90
2022-08-07T17:54:02.391Z,2.70
2022-08-07T18:04:30.870Z,2.80
2022-08-07T18:14:45.146Z,2.90
2022-08-07T18:25:19.472Z,2.70
2022-08-07T18:36:00.641Z,2.70
2022-08-07T18:46:27.402Z,2.90
2022-08-07T18:56:39.243Z,3.40
2022-08-07T19:06:51.436Z,3.30
2022-08-07T19:17:05.708Z,3.30
2022-08-07T19:28:29.693Z,3.50
2022-08-07T19:37:58.167Z,3.60
2022-08-07T19:48:18.656Z,3.60
2022-08-07T19:58:32.440Z,3.30
2022-08-07T20:08:48.876Z,3.50
2022-08-07T20:18:59.601Z,3.20
2022-08-07T20:29:10.209Z,3.40
2022-08-07T20:40:02.178Z,3.30
2022-08-07T20:50:01.249Z,3.40
2022-08-07T21:00:09.618Z,3.55
2022-08-07T21:10:29.851Z,3.60
2022-08-07T21:20:38.490Z,3.40
2022-08-07T21:30:52.597Z,3.50
2022-08-07T21:41:24.567Z,3.60
2022-08-07T21:51:51.814Z,3.90
2022-08-07T22:02:11.111Z,3.60
2022-08-07T22:12:41.170Z,3.80
2022-08-07T22:22:52.222Z,3.60
2022-08-07T22:33:09.589Z,3.60
2022-08-07T22:43:19.025Z,3.80
2022-08-07T22:54:06.926Z,3.60
2022-08-07T23:04:21.380Z,3.20
2022-08-07T23:14:50.576Z,2.90
2022-08-07T23:25:05.662Z,2.80
2022-08-07T23:35:16.777Z,3.00
2022-08-07T23:46:02.716Z,3.20
2022-08-07T23:56:35.140Z,2.70
